createdAt,value
2018-08-27T00:00:29.122Z,55.55
2018-08-27T00:02:55.488Z,55.38
2018-08-27T00:05:21.804Z,55.66
2018-08-27T00:07:48.139Z,55.58
2018-08-27T00:10:14.474Z,55.75
2018-08-27T00:12:40.792Z,55.74
2018-08-27T00:15:07.162Z,55.85
2018-08-27T00:17:33.505Z,55.86
2018-08-27T00:19:59.897Z,55.83
2018-08-27T00:22:26.351Z,55.86
2018-08-27T00:24:52.691Z,55.84
2018-08-27T00:27:19.081Z,55.99
2018-08-27T00:29:45.412Z,55.75
2018-08-27T00:32:11.820Z,55.89
2018-08-27T00:34:38.169Z,56.04
2018-08-27T00:37:04.566Z,55.87
2018-08-27T00:39:30.913Z,56.41
2018-08-27T00:41:57.279Z,56.11
2018-08-27T00:44:23.652Z,55.91
2018-08-27T00:46:49.975Z,56.09
2018-08-27T00:49:16.355Z,56.00
2018-08-27T00:51:42.673Z,55.96
2018-08-27T00:54:09.016Z,56.07
2018-08-27T00:56:35.415Z,56.11
2018-08-27T00:59:01.805Z,56.21
2018-08-27T01:01:28.129Z,55.75
2018-08-27T01:03:54.525Z,55.56
2018-08-27T01:06:20.857Z,55.65
2018-08-27T01:08:47.197Z,56.11
2018-08-27T01:11:13.691Z,56.20
2018-08-27T01:13:40.064Z,56.09
2018-08-27T01:16:06.411Z,56.41
2018-08-27T01:18:32.751Z,56.43
2018-08-27T01:20:59.074Z,56.42
2018-08-27T01:23:25.477Z,56.64
2018-08-27T01:25:51.918Z,56.82
2018-08-27T01:28:18.255Z,56.83
2018-08-27T01:30:44.607Z,56.71
2018-08-27T01:33:11.776Z,57.00
2018-08-27T01:35:38.173Z,57.19
2018-08-27T01:38:04.561Z,57.17
2018-08-27T01:40:30.897Z,56.83
2018-08-27T01:42:57.250Z,57.00
2018-08-27T01:45:23.593Z,56.80
2018-08-27T01:47:49.926Z,56.65
2018-08-27T01:50:16.354Z,56.60
2018-08-27T01:52:42.723Z,56.68
2018-08-27T01:55:09.112Z,56.69
2018-08-27T01:57:35.442Z,56.53
2018-08-27T02:00:01.805Z,56.53
2018-08-27T02:02:28.204Z,56.27
2018-08-27T02:04:54.570Z,56.36
2018-08-27T02:07:20.895Z,56.52
2018-08-27T02:09:47.265Z,56.71
2018-08-27T02:12:13.603Z,56.58
2018-08-27T02:14:39.994Z,56.47
2018-08-27T02:17:06.322Z,56.53
2018-08-27T02:19:32.651Z,56.69
2018-08-27T02:21:58.984Z,56.62
2018-08-27T02:24:25.336Z,56.55
2018-08-27T02:26:51.754Z,56.50
2018-08-27T02:29:18.263Z,56.36
2018-08-27T02:31:44.695Z,56.45
2018-08-27T02:34:11.035Z,56.37
2018-08-27T02:36:37.403Z,56.33
2018-08-27T02:39:03.732Z,56.16
2018-08-27T02:41:30.102Z,56.25
2018-08-27T02:43:56.440Z,56.27
2018-08-27T02:46:22.932Z,56.20
2018-08-27T02:48:49.262Z,56.13
2018-08-27T02:51:15.634Z,56.09
2018-08-27T02:53:41.993Z,56.03
2018-08-27T02:56:08.383Z,56.18
2018-08-27T02:58:34.714Z,56.06
2018-08-27T03:01:01.044Z,56.04
2018-08-27T03:03:27.411Z,56.12
2018-08-27T03:05:53.730Z,55.95
2018-08-27T03:08:20.108Z,55.64
2018-08-27T03:10:46.463Z,55.72
2018-08-27T03:13:12.836Z,55.84
2018-08-27T03:15:39.167Z,55.78
2018-08-27T03:18:05.491Z,55.77
2018-08-27T03:20:31.852Z,55.69
2018-08-27T03:22:58.177Z,55.62
2018-08-27T03:25:24.550Z,55.64
2018-08-27T03:27:50.886Z,55.50
2018-08-27T03:30:17.211Z,55.34
2018-08-27T03:32:43.542Z,55.27
2018-08-27T03:35:09.874Z,55.18
2018-08-27T03:37:36.264Z,55.11
2018-08-27T03:40:02.631Z,55.67
2018-08-27T03:42:29.005Z,55.48
2018-08-27T03:44:55.323Z,55.49
2018-08-27T03:47:21.737Z,55.47
2018-08-27T03:49:48.129Z,55.35
2018-08-27T03:52:14.824Z,55.45
2018-08-27T03:54:41.205Z,55.33
2018-08-27T03:57:07.596Z,55.18
2018-08-27T03:59:33.936Z,55.21
2018-08-27T04:02:00.258Z,55.14
2018-08-27T04:04:26.597Z,55.12
2018-08-27T04:06:52.980Z,55.11
2018-08-27T04:09:19.337Z,55.08
2018-08-27T04:11:45.742Z,55.09
2018-08-27T04:14:12.072Z,55.03
2018-08-27T04:16:38.401Z,54.96
2018-08-27T04:19:04.743Z,55.00
2018-08-27T04:21:31.111Z,54.73
2018-08-27T04:23:57.447Z,54.90
2018-08-27T04:26:23.854Z,54.82
2018-08-27T04:28:50.344Z,54.69
2018-08-27T04:31:16.624Z,54.72
2018-08-27T04:33:42.998Z,54.83
2018-08-27T04:36:09.361Z,54.88
2018-08-27T04:38:35.728Z,54.89
2018-08-27T04:41:02.054Z,54.92
2018-08-27T04:43:28.420Z,54.99
2018-08-27T04:45:54.778Z,54.72
2018-08-27T04:48:21.145Z,54.95
2018-08-27T04:50:47.563Z,54.95
2018-08-27T04:53:13.880Z,54.90
2018-08-27T04:55:40.239Z,54.84
2018-08-27T04:58:06.582Z,54.90
2018-08-27T05:00:32.963Z,54.73
2018-08-27T05:02:59.367Z,54.87
2018-08-27T05:05:25.722Z,54.91
2018-08-27T05:07:52.067Z,54.77
2018-08-27T05:10:18.393Z,54.76
2018-08-27T05:12:44.814Z,54.58
2018-08-27T05:15:11.454Z,54.66
2018-08-27T05:17:37.807Z,54.72
2018-08-27T05:20:04.172Z,54.69
2018-08-27T05:22:30.498Z,54.63
2018-08-27T05:24:56.875Z,54.68
2018-08-27T05:27:23.216Z,54.67
2018-08-27T05:29:49.568Z,54.74
2018-08-27T05:32:15.911Z,54.75
2018-08-27T05:34:42.255Z,54.71
2018-08-27T05:37:08.700Z,54.70
2018-08-27T05:39:35.037Z,54.89
2018-08-27T05:42:01.399Z,54.90
2018-08-27T05:44:27.831Z,54.84
2018-08-27T05:46:54.166Z,54.82
2018-08-27T05:49:20.506Z,54.90
2018-08-27T05:51:46.843Z,54.72
2018-08-27T05:54:13.227Z,54.91
2018-08-27T05:56:39.568Z,54.90
2018-08-27T05:59:05.932Z,54.88
2018-08-27T06:01:32.373Z,54.85
2018-08-27T06:03:58.721Z,54.57
2018-08-27T06:06:25.059Z,54.28
2018-08-27T06:08:51.382Z,54.37
2018-08-27T06:11:17.806Z,54.47
2018-08-27T06:13:44.101Z,54.03
2018-08-27T06:16:10.531Z,54.20
2018-08-27T06:18:36.818Z,53.93
2018-08-27T06:21:03.196Z,53.79
2018-08-27T06:23:29.628Z,53.78
2018-08-27T06:25:55.958Z,53.63
2018-08-27T06:28:22.334Z,53.74
2018-08-27T06:30:48.825Z,53.90
2018-08-27T06:33:15.358Z,53.68
2018-08-27T06:35:41.859Z,53.83
2018-08-27T06:38:08.317Z,53.82
2018-08-27T06:40:34.714Z,53.82
2018-08-27T06:43:01.050Z,53.90
2018-08-27T06:45:27.420Z,53.53
2018-08-27T06:47:53.801Z,53.80
2018-08-27T06:50:20.174Z,53.73
2018-08-27T06:52:46.891Z,53.55
2018-08-27T06:55:13.245Z,53.59
2018-08-27T06:57:39.796Z,53.87
2018-08-27T07:00:06.533Z,53.80
2018-08-27T07:02:33.649Z,53.60
2018-08-27T07:05:00.018Z,53.61
2018-08-27T07:07:26.375Z,53.71
2018-08-27T07:09:52.775Z,53.52
2018-08-27T07:12:19.186Z,53.37
2018-08-27T07:14:45.528Z,53.80
2018-08-27T07:17:11.866Z,53.43
2018-08-27T07:19:38.402Z,53.22
2018-08-27T07:22:04.768Z,53.42
2018-08-27T07:24:31.267Z,53.29
2018-08-27T07:26:57.614Z,53.26
2018-08-27T07:29:24.000Z,53.40
2018-08-27T07:31:50.328Z,53.47
2018-08-27T07:34:16.725Z,53.53
2018-08-27T07:36:43.224Z,53.55
2018-08-27T07:39:09.590Z,53.55
2018-08-27T07:41:35.915Z,53.31
2018-08-27T07:44:02.256Z,53.29
2018-08-27T07:46:28.584Z,53.49
2018-08-27T07:48:55.009Z,53.23
2018-08-27T07:51:21.392Z,53.28
2018-08-27T07:53:47.703Z,53.37
2018-08-27T07:56:14.111Z,53.07
2018-08-27T07:58:40.481Z,52.86
2018-08-27T08:01:06.832Z,52.95
2018-08-27T08:03:33.159Z,52.97
2018-08-27T08:05:59.495Z,52.91
2018-08-27T08:08:25.893Z,52.82
2018-08-27T08:10:52.249Z,52.74
2018-08-27T08:13:18.590Z,52.74
2018-08-27T08:15:45.028Z,52.72
2018-08-27T08:18:11.403Z,52.80
2018-08-27T08:20:37.748Z,52.62
2018-08-27T08:23:04.109Z,52.40
2018-08-27T08:25:30.444Z,52.58
2018-08-27T08:27:56.814Z,52.45
2018-08-27T08:30:23.170Z,52.38
2018-08-27T08:32:49.508Z,52.41
2018-08-27T08:35:15.865Z,52.36
2018-08-27T08:37:42.305Z,52.44
2018-08-27T08:40:08.690Z,52.64
2018-08-27T08:42:34.990Z,52.47
2018-08-27T08:45:01.359Z,52.23
2018-08-27T08:47:27.720Z,52.33
2018-08-27T08:49:54.124Z,52.38
2018-08-27T08:52:20.555Z,52.43
2018-08-27T08:54:46.904Z,52.39
2018-08-27T08:57:13.241Z,52.62
2018-08-27T08:59:39.680Z,52.45
2018-08-27T09:02:06.061Z,52.62
2018-08-27T09:04:32.398Z,52.88
2018-08-27T09:06:58.748Z,52.79
2018-08-27T09:09:25.089Z,52.70
2018-08-27T09:11:51.473Z,52.50
2018-08-27T09:14:17.798Z,52.56
2018-08-27T09:16:44.258Z,52.62
2018-08-27T09:19:10.567Z,52.49
2018-08-27T09:21:36.932Z,52.42
2018-08-27T09:24:03.269Z,52.64
2018-08-27T09:26:29.665Z,52.61
2018-08-27T09:28:56.013Z,52.64
2018-08-27T09:31:22.412Z,52.46
2018-08-27T09:33:48.781Z,52.58
2018-08-27T09:36:15.120Z,52.43
2018-08-27T09:38:41.483Z,52.59
2018-08-27T09:41:07.819Z,52.60
2018-08-27T09:43:34.240Z,52.65
2018-08-27T09:46:00.678Z,52.68
2018-08-27T09:48:27.052Z,52.64
2018-08-27T09:50:53.411Z,52.61
2018-08-27T09:53:19.806Z,52.62
2018-08-27T09:55:46.201Z,52.41
2018-08-27T09:58:12.559Z,52.48
2018-08-27T10:00:38.896Z,52.46
2018-08-27T10:03:05.292Z,52.38
2018-08-27T10:05:31.636Z,52.46
2018-08-27T10:07:58.054Z,52.23
2018-08-27T10:10:24.450Z,52.23
2018-08-27T10:12:50.768Z,52.25
2018-08-27T10:15:17.147Z,52.30
2018-08-27T10:17:43.499Z,52.24
2018-08-27T10:20:09.828Z,52.09
2018-08-27T10:22:36.216Z,51.98
2018-08-27T10:25:02.905Z,51.86
2018-08-27T10:27:29.305Z,51.90
2018-08-27T10:29:57.145Z,51.71
2018-08-27T10:32:23.429Z,51.53
2018-08-27T10:34:49.764Z,51.63
2018-08-27T10:37:16.928Z,51.53
2018-08-27T10:39:43.321Z,51.67
2018-08-27T10:42:09.673Z,51.43
2018-08-27T10:44:36.004Z,51.42
2018-08-27T10:47:02.412Z,51.24
2018-08-27T10:49:28.857Z,51.37
2018-08-27T10:51:55.283Z,51.34
2018-08-27T10:54:21.662Z,51.28
2018-08-27T10:56:48.096Z,51.32
2018-08-27T10:59:14.499Z,51.06
2018-08-27T11:01:40.908Z,51.17
2018-08-27T11:04:07.268Z,51.16
2018-08-27T11:06:33.777Z,51.15
2018-08-27T11:09:00.177Z,50.81
2018-08-27T11:11:26.585Z,51.06
2018-08-27T11:13:54.465Z,50.82
2018-08-27T11:16:20.910Z,50.78
2018-08-27T11:18:47.274Z,50.80
2018-08-27T11:21:13.670Z,50.60
2018-08-27T11:23:40.033Z,50.68
2018-08-27T11:26:06.569Z,50.48
2018-08-27T11:28:32.870Z,50.51
2018-08-27T11:30:59.329Z,50.32
2018-08-27T11:33:25.720Z,50.51
2018-08-27T11:35:52.052Z,50.24
2018-08-27T11:38:18.407Z,50.45
2018-08-27T11:40:44.851Z,50.15
2018-08-27T11:43:11.191Z,50.21
2018-08-27T11:45:37.571Z,50.22
2018-08-27T11:48:03.923Z,50.17
2018-08-27T11:50:30.402Z,49.77
2018-08-27T11:52:56.749Z,49.88
2018-08-27T11:55:23.131Z,50.04
2018-08-27T11:57:49.489Z,49.88
2018-08-27T12:00:15.978Z,50.08
2018-08-27T12:02:42.522Z,50.04
2018-08-27T12:05:09.527Z,49.97
2018-08-27T12:07:35.860Z,49.79
2018-08-27T12:10:02.283Z,49.94
2018-08-27T12:12:28.636Z,49.52
2018-08-27T12:14:54.994Z,49.66
2018-08-27T12:17:21.393Z,49.67
2018-08-27T12:19:47.728Z,49.70
2018-08-27T12:22:14.164Z,49.64
2018-08-27T12:24:40.520Z,49.92
2018-08-27T12:27:06.915Z,49.70
2018-08-27T12:29:33.247Z,49.60
2018-08-27T12:31:59.656Z,49.82
2018-08-27T12:34:26.019Z,49.58
2018-08-27T12:36:52.514Z,49.54
2018-08-27T12:39:18.844Z,49.89
2018-08-27T12:41:45.217Z,49.84
2018-08-27T12:44:11.546Z,49.87
2018-08-27T12:46:37.904Z,49.75
2018-08-27T12:49:04.299Z,49.81
2018-08-27T12:51:30.748Z,49.92
2018-08-27T12:53:57.131Z,49.84
2018-08-27T12:56:23.466Z,49.94
2018-08-27T12:58:50.260Z,49.79
2018-08-27T13:01:16.523Z,49.73
2018-08-27T13:03:42.909Z,49.82
2018-08-27T13:06:09.516Z,49.79
2018-08-27T13:08:35.940Z,49.68
2018-08-27T13:11:02.313Z,49.85
2018-08-27T13:13:28.644Z,50.02
2018-08-27T13:15:55.079Z,50.02
2018-08-27T13:18:21.546Z,50.00
2018-08-27T13:20:47.897Z,50.09
2018-08-27T13:23:14.315Z,50.07
2018-08-27T13:25:40.876Z,50.04
2018-08-27T13:28:07.216Z,50.12
2018-08-27T13:30:33.797Z,50.19
2018-08-27T13:33:00.011Z,50.20
2018-08-27T13:35:26.403Z,50.17
2018-08-27T13:37:52.767Z,50.21
2018-08-27T13:40:19.272Z,50.19
2018-08-27T13:42:45.569Z,50.07
2018-08-27T13:45:12.511Z,50.16
2018-08-27T13:47:39.154Z,49.94
2018-08-27T13:50:05.690Z,50.09
2018-08-27T13:52:32.041Z,50.21
2018-08-27T13:54:59.783Z,50.20
2018-08-27T13:57:26.148Z,50.08
2018-08-27T13:59:53.525Z,50.18
2018-08-27T14:02:19.942Z,50.00
2018-08-27T14:04:50.555Z,50.19
2018-08-27T14:07:16.940Z,50.17
2018-08-27T14:09:43.377Z,50.25
2018-08-27T14:12:09.851Z,50.26
2018-08-27T14:14:36.234Z,50.33
2018-08-27T14:17:02.679Z,50.37
2018-08-27T14:19:29.152Z,50.27
2018-08-27T14:21:55.501Z,50.18
2018-08-27T14:24:21.893Z,50.23
2018-08-27T14:26:48.289Z,50.21
2018-08-27T14:29:14.836Z,50.10
2018-08-27T14:31:41.321Z,50.00
2018-08-27T14:34:07.692Z,49.98
2018-08-27T14:36:34.055Z,49.86
2018-08-27T14:39:00.526Z,49.93
2018-08-27T14:41:26.856Z,49.78
2018-08-27T14:43:53.947Z,49.83
2018-08-27T14:46:20.277Z,49.70
2018-08-27T14:48:46.709Z,49.82
2018-08-27T14:51:13.097Z,49.63
2018-08-27T14:53:39.472Z,49.49
2018-08-27T14:56:05.932Z,49.54
2018-08-27T14:58:32.198Z,49.52
2018-08-27T15:00:58.683Z,49.76
2018-08-27T15:03:25.134Z,49.53
2018-08-27T15:05:51.769Z,49.54
2018-08-27T15:08:18.670Z,49.58
2018-08-27T15:10:45.674Z,49.52
2018-08-27T15:13:12.185Z,49.42
2018-08-27T15:15:38.564Z,49.28
2018-08-27T15:18:05.016Z,49.21
2018-08-27T15:20:31.484Z,49.44
2018-08-27T15:22:57.883Z,49.44
2018-08-27T15:25:24.214Z,49.45
2018-08-27T15:27:50.604Z,49.24
2018-08-27T15:30:16.977Z,49.45
2018-08-27T15:32:43.344Z,49.60
2018-08-27T15:35:09.680Z,49.58
2018-08-27T15:37:36.019Z,49.50
2018-08-27T15:40:02.382Z,49.68
2018-08-27T15:42:28.718Z,49.68
2018-08-27T15:44:55.104Z,49.59
2018-08-27T15:47:21.529Z,49.71
2018-08-27T15:49:47.934Z,49.74
2018-08-27T15:52:14.263Z,49.67
2018-08-27T15:54:40.653Z,49.78
2018-08-27T15:57:07.030Z,49.79
2018-08-27T15:59:33.384Z,49.86
2018-08-27T16:01:59.721Z,49.77
2018-08-27T16:04:26.068Z,49.79
2018-08-27T16:06:52.407Z,49.60
2018-08-27T16:09:18.775Z,49.72
2018-08-27T16:11:45.130Z,49.95
2018-08-27T16:14:11.507Z,49.95
2018-08-27T16:16:37.909Z,50.10
2018-08-27T16:19:04.273Z,50.16
2018-08-27T16:21:30.665Z,50.21
2018-08-27T16:23:57.061Z,50.31
2018-08-27T16:26:23.438Z,50.21
2018-08-27T16:28:49.767Z,50.30
2018-08-27T16:31:16.128Z,50.34
2018-08-27T16:33:42.454Z,50.39
2018-08-27T16:36:08.861Z,50.36
2018-08-27T16:38:35.211Z,50.51
2018-08-27T16:41:01.584Z,50.51
2018-08-27T16:43:27.918Z,50.63
2018-08-27T16:45:54.283Z,50.56
2018-08-27T16:48:20.613Z,50.68
2018-08-27T16:50:46.948Z,50.75
2018-08-27T16:53:13.310Z,50.79
2018-08-27T16:55:39.668Z,50.85
2018-08-27T16:58:06.001Z,50.70
2018-08-27T17:00:32.335Z,50.93
2018-08-27T17:02:58.660Z,51.03
2018-08-27T17:05:24.994Z,50.96
2018-08-27T17:07:51.320Z,51.06
2018-08-27T17:10:17.706Z,50.88
2018-08-27T17:12:44.058Z,50.88
2018-08-27T17:15:10.416Z,50.86
2018-08-27T17:17:36.775Z,51.09
2018-08-27T17:20:03.139Z,50.98
2018-08-27T17:22:29.483Z,51.16
2018-08-27T17:24:55.844Z,51.13
2018-08-27T17:27:22.252Z,51.26
2018-08-27T17:29:48.600Z,51.33
2018-08-27T17:32:14.954Z,51.39
2018-08-27T17:34:41.309Z,51.49
2018-08-27T17:37:07.708Z,51.46
2018-08-27T17:39:34.038Z,51.38
2018-08-27T17:42:00.427Z,51.50
2018-08-27T17:44:26.819Z,51.42
2018-08-27T17:46:53.201Z,51.48
2018-08-27T17:49:19.581Z,51.38
2018-08-27T17:51:45.911Z,51.59
2018-08-27T17:54:12.244Z,51.44
2018-08-27T17:56:38.675Z,51.51
2018-08-27T17:59:05.036Z,51.48
2018-08-27T18:01:31.423Z,51.46
2018-08-27T18:03:57.843Z,51.49
2018-08-27T18:06:24.168Z,51.42
2018-08-27T18:08:50.503Z,51.58
2018-08-27T18:11:16.884Z,51.52
2018-08-27T18:13:43.215Z,51.44
2018-08-27T18:16:09.611Z,51.55
2018-08-27T18:18:35.942Z,51.45
2018-08-27T18:21:02.280Z,51.48
2018-08-27T18:23:28.630Z,51.51
2018-08-27T18:25:54.961Z,51.49
2018-08-27T18:28:21.300Z,51.50
2018-08-27T18:30:47.681Z,51.50
2018-08-27T18:33:14.127Z,51.47
2018-08-27T18:35:40.508Z,51.45
2018-08-27T18:38:06.857Z,51.55
2018-08-27T18:40:33.195Z,51.47
2018-08-27T18:42:59.573Z,51.57
2018-08-27T18:45:25.966Z,51.54
2018-08-27T18:47:52.259Z,51.54
2018-08-27T18:50:18.768Z,51.46
2018-08-27T18:52:45.120Z,51.59
2018-08-27T18:55:11.485Z,51.61
2018-08-27T18:57:37.873Z,51.65
2018-08-27T19:00:04.223Z,51.60
2018-08-27T19:02:30.607Z,51.67
2018-08-27T19:04:56.946Z,51.61
2018-08-27T19:07:23.280Z,51.73
2018-08-27T19:09:49.630Z,51.84
2018-08-27T19:12:15.974Z,51.90
2018-08-27T19:14:42.340Z,51.90
2018-08-27T19:17:08.697Z,51.95
2018-08-27T19:19:35.123Z,51.90
2018-08-27T19:22:01.591Z,51.99
2018-08-27T19:24:28.154Z,52.02
2018-08-27T19:26:54.475Z,52.07
2018-08-27T19:29:20.802Z,52.26
2018-08-27T19:31:47.136Z,52.20
2018-08-27T19:34:13.615Z,52.05
2018-08-27T19:36:40.059Z,52.03
2018-08-27T19:39:06.343Z,52.14
2018-08-27T19:41:32.744Z,52.15
2018-08-27T19:43:59.090Z,52.22
2018-08-27T19:46:25.519Z,52.09
2018-08-27T19:48:51.791Z,52.21
2018-08-27T19:51:18.189Z,52.08
2018-08-27T19:53:44.512Z,51.98
2018-08-27T19:56:10.914Z,52.12
2018-08-27T19:58:37.252Z,52.16
2018-08-27T20:01:03.681Z,51.99
2018-08-27T20:03:30.107Z,52.14
2018-08-27T20:05:56.460Z,52.16
2018-08-27T20:08:22.849Z,51.98
2018-08-27T20:10:49.174Z,52.04
2018-08-27T20:13:15.540Z,52.19
2018-08-27T20:15:41.879Z,52.26
2018-08-27T20:18:08.208Z,52.15
2018-08-27T20:20:34.561Z,52.04
2018-08-27T20:23:00.900Z,52.05
2018-08-27T20:25:27.232Z,52.13
2018-08-27T20:27:53.621Z,52.04
2018-08-27T20:30:19.994Z,52.09
2018-08-27T20:32:46.320Z,52.07
2018-08-27T20:35:12.824Z,52.06
2018-08-27T20:37:39.156Z,52.06
2018-08-27T20:40:05.658Z,51.95
2018-08-27T20:42:32.012Z,51.96
2018-08-27T20:44:58.367Z,52.01
2018-08-27T20:47:24.771Z,51.79
2018-08-27T20:49:51.185Z,52.01
2018-08-27T20:52:17.643Z,52.00
2018-08-27T20:54:43.976Z,51.79
2018-08-27T20:57:10.436Z,51.85
2018-08-27T20:59:36.717Z,52.03
2018-08-27T21:02:03.051Z,52.01
2018-08-27T21:04:29.443Z,51.91
2018-08-27T21:06:55.773Z,51.73
2018-08-27T21:09:22.103Z,51.90
2018-08-27T21:11:48.419Z,51.87
2018-08-27T21:14:14.757Z,51.99
2018-08-27T21:16:41.168Z,51.80
2018-08-27T21:19:07.515Z,52.03
2018-08-27T21:21:33.852Z,51.94
2018-08-27T21:24:00.220Z,51.76
2018-08-27T21:26:26.548Z,52.03
2018-08-27T21:28:52.873Z,51.85
2018-08-27T21:31:19.264Z,51.88
2018-08-27T21:33:45.566Z,51.84
2018-08-27T21:36:11.894Z,51.98
2018-08-27T21:38:38.268Z,51.90
2018-08-27T21:41:04.618Z,52.15
2018-08-27T21:43:30.951Z,51.95
2018-08-27T21:45:57.271Z,51.89
2018-08-27T21:48:23.626Z,51.97
2018-08-27T21:50:49.993Z,52.05
2018-08-27T21:53:16.487Z,52.04
2018-08-27T21:55:42.825Z,51.94
2018-08-27T21:58:09.282Z,52.22
2018-08-27T22:00:35.632Z,52.14
2018-08-27T22:03:01.976Z,52.22
2018-08-27T22:05:28.315Z,52.00
2018-08-27T22:07:54.649Z,52.16
2018-08-27T22:10:20.988Z,52.09
2018-08-27T22:12:47.311Z,52.04
2018-08-27T22:15:13.643Z,52.00
2018-08-27T22:17:40.037Z,52.08
2018-08-27T22:20:06.513Z,52.10
2018-08-27T22:22:32.845Z,52.29
2018-08-27T22:24:59.214Z,52.12
2018-08-27T22:27:25.607Z,52.13
2018-08-27T22:29:51.963Z,52.22
2018-08-27T22:32:18.295Z,52.23
2018-08-27T22:34:44.630Z,52.03
2018-08-27T22:37:10.966Z,51.96
2018-08-27T22:39:37.297Z,52.09
2018-08-27T22:42:03.640Z,52.17
2018-08-27T22:44:29.990Z,52.09
2018-08-27T22:46:56.371Z,52.16
2018-08-27T22:49:22.692Z,51.87
2018-08-27T22:51:49.057Z,52.23
2018-08-27T22:54:15.388Z,52.19
2018-08-27T22:56:41.748Z,52.12
2018-08-27T22:59:08.110Z,52.19
2018-08-27T23:01:34.483Z,52.09
2018-08-27T23:04:00.837Z,52.04
2018-08-27T23:06:27.305Z,52.22
2018-08-27T23:08:53.635Z,52.14
2018-08-27T23:11:19.966Z,52.16
2018-08-27T23:13:46.299Z,52.25
2018-08-27T23:16:12.627Z,52.27
2018-08-27T23:18:38.953Z,52.17
2018-08-27T23:21:05.295Z,52.18
2018-08-27T23:23:31.661Z,52.00
2018-08-27T23:25:57.989Z,52.14
2018-08-27T23:28:24.318Z,52.22
2018-08-27T23:30:50.669Z,52.05
2018-08-27T23:33:17.000Z,52.18
2018-08-27T23:35:43.376Z,51.82
2018-08-27T23:38:09.713Z,51.99
2018-08-27T23:40:36.065Z,52.02
2018-08-27T23:43:02.400Z,52.08
2018-08-27T23:45:28.778Z,52.07
2018-08-27T23:47:55.182Z,52.10
2018-08-27T23:50:21.499Z,51.95
2018-08-27T23:52:47.832Z,52.10
2018-08-27T23:55:14.192Z,51.85
2018-08-27T23:57:40.532Z,52.13
